Terminal Aerodrome Forecast
Issued by NWS

Home | Current Version | Previous Version | Text Only | Print | Product List | Glossary On
Versions: 1 2 3 4 5 6 7 8 9 10 11 12 13 14 15 16 17 18 19 20 21
000
FTUS45 KRIW 200100 AAA
TAFCPR
TAF AMD
KCPR 200122Z 2001/2024 08018G28KT 2SM -SNRA BR OVC006
      TEMPO 2001/2003 1/2SM SN FG
     FM200300 03007KT P6SM -SN OVC016
      TEMPO 2003/2004 2SM -SN BR OVC008
     FM201600 09007KT P6SM VCSH BKN028=

USA.gov is the U.S. government's official web portal to all federal, state and local government web resources and services.